createdAt,value
2022-12-12T00:01:50.006Z,8.20
2022-12-12T00:04:21.696Z,8.18
2022-12-12T00:06:50.358Z,8.02
2022-12-12T00:09:19.157Z,7.75
2022-12-12T00:11:56.119Z,7.80
2022-12-12T00:14:25.057Z,8.23
2022-12-12T00:16:53.635Z,8.90
2022-12-12T00:19:22.234Z,8.25
2022-12-12T00:21:50.772Z,7.60
2022-12-12T00:24:19.510Z,8.30
2022-12-12T00:26:48.136Z,8.27
2022-12-12T00:29:17.247Z,8.10
2022-12-12T00:31:45.666Z,7.93
2022-12-12T00:34:14.417Z,7.95
2022-12-12T00:36:42.887Z,7.25
2022-12-12T00:39:18.208Z,7.93
2022-12-12T00:42:02.111Z,7.50
2022-12-12T00:44:31.490Z,8.10
2022-12-12T00:47:00.032Z,7.28
2022-12-12T00:49:35.116Z,7.72
2022-12-12T00:52:03.410Z,8.18
2022-12-12T00:54:32.081Z,7.70
2022-12-12T00:57:00.862Z,8.27
2022-12-12T00:59:29.737Z,7.80
2022-12-12T01:01:58.356Z,7.13
2022-12-12T01:04:27.368Z,7.30
2022-12-12T01:07:14.366Z,7.45
2022-12-12T01:09:43.200Z,6.30
2022-12-12T01:12:11.741Z,8.35
2022-12-12T01:14:40.943Z,7.05
2022-12-12T01:17:11.111Z,6.75
2022-12-12T01:19:40.094Z,7.43
2022-12-12T01:22:08.779Z,6.22
2022-12-12T01:24:39.823Z,5.88
2022-12-12T01:27:08.327Z,6.95
2022-12-12T01:29:37.349Z,7.05
2022-12-12T01:32:05.787Z,6.30
2022-12-12T01:34:35.607Z,5.78
2022-12-12T01:37:04.351Z,5.97
2022-12-12T01:39:32.873Z,6.63
2022-12-12T01:42:01.544Z,6.40
2022-12-12T01:44:46.451Z,5.55
2022-12-12T01:47:18.669Z,5.60
2022-12-12T01:50:01.650Z,6.47
2022-12-12T01:52:35.344Z,6.50
2022-12-12T01:55:06.571Z,6.70
2022-12-12T01:57:44.131Z,5.72
2022-12-12T02:00:14.288Z,5.50
2022-12-12T02:02:47.448Z,5.57
2022-12-12T02:05:52.180Z,5.72
2022-12-12T02:08:22.320Z,5.70
2022-12-12T02:10:51.950Z,5.97
2022-12-12T02:13:24.940Z,6.03
2022-12-12T02:16:15.481Z,5.18
2022-12-12T02:19:01.088Z,5.32
2022-12-12T02:21:49.946Z,5.75
2022-12-12T02:24:38.741Z,5.13
2022-12-12T02:27:41.466Z,5.07
2022-12-12T02:30:17.022Z,4.97
2022-12-12T02:33:21.648Z,4.55
2022-12-12T02:36:01.511Z,3.80
2022-12-12T02:38:55.393Z,4.80
2022-12-12T02:41:36.567Z,6.25
2022-12-12T02:44:40.046Z,4.75
2022-12-12T02:47:18.645Z,4.43
2022-12-12T02:49:57.327Z,5.88
2022-12-12T02:52:27.643Z,5.78
2022-12-12T02:54:56.683Z,4.65
2022-12-12T02:57:27.091Z,6.30
2022-12-12T03:00:06.091Z,5.97
2022-12-12T03:02:37.667Z,4.53
2022-12-12T03:05:31.967Z,3.45
2022-12-12T03:08:18.935Z,5.15
2022-12-12T03:10:56.767Z,5.13
2022-12-12T03:13:47.403Z,4.50
2022-12-12T03:16:45.973Z,3.60
2022-12-12T03:19:29.411Z,3.67
2022-12-12T03:22:07.702Z,4.30
2022-12-12T03:24:47.711Z,2.67
2022-12-12T03:27:57.921Z,4.53
2022-12-12T03:30:28.588Z,4.57
2022-12-12T03:33:06.974Z,4.35
2022-12-12T03:35:46.650Z,4.35
2022-12-12T03:38:24.420Z,4.25
2022-12-12T03:40:58.448Z,4.32
2022-12-12T03:43:31.364Z,3.22
2022-12-12T03:46:18.311Z,3.97
2022-12-12T03:49:09.541Z,4.90
2022-12-12T03:51:43.779Z,2.63
2022-12-12T03:54:21.166Z,4.38
2022-12-12T03:57:07.830Z,3.67
2022-12-12T03:59:42.707Z,3.40
2022-12-12T04:02:22.747Z,3.60
2022-12-12T04:05:03.717Z,3.92
2022-12-12T04:07:41.307Z,4.10
2022-12-12T04:10:30.896Z,3.30
2022-12-12T04:13:14.686Z,3.35
2022-12-12T04:16:20.791Z,4.10
2022-12-12T04:19:09.409Z,3.78
2022-12-12T04:22:18.084Z,3.90
2022-12-12T04:25:02.869Z,3.65
2022-12-12T04:27:39.953Z,3.47
2022-12-12T04:30:18.616Z,2.80
2022-12-12T04:33:06.804Z,3.25
2022-12-12T04:35:41.532Z,3.60
2022-12-12T04:38:23.544Z,3.72
2022-12-12T04:40:59.077Z,5.63
2022-12-12T04:43:37.961Z,12.00
2022-12-12T04:46:10.744Z,11.38
2022-12-12T04:48:47.448Z,7.68
2022-12-12T04:51:25.788Z,6.75
2022-12-12T04:54:20.690Z,4.40
2022-12-12T04:56:56.863Z,5.57
2022-12-12T04:59:26.161Z,4.43
2022-12-12T05:02:04.490Z,4.90
2022-12-12T05:04:58.506Z,4.45
2022-12-12T05:07:40.598Z,4.40
2022-12-12T05:10:16.454Z,4.35
2022-12-12T05:12:50.479Z,4.57
2022-12-12T05:15:20.825Z,4.13
2022-12-12T05:17:56.913Z,3.92
2022-12-12T05:20:27.589Z,3.70
2022-12-12T05:22:56.575Z,3.92
2022-12-12T05:25:25.436Z,4.25
2022-12-12T05:27:54.126Z,4.05
2022-12-12T05:30:24.793Z,3.92
2022-12-12T05:32:54.715Z,3.03
2022-12-12T05:35:23.793Z,4.28
2022-12-12T05:37:52.969Z,6.85
2022-12-12T05:40:27.741Z,4.88
2022-12-12T05:42:57.247Z,4.88
2022-12-12T05:45:25.895Z,4.88
2022-12-12T05:47:54.293Z,5.50
2022-12-12T05:50:23.549Z,4.47
2022-12-12T05:52:52.172Z,6.07
2022-12-12T05:55:23.515Z,6.55
2022-12-12T05:57:52.221Z,3.70
2022-12-12T06:03:03.610Z,5.03
2022-12-12T06:05:32.182Z,4.75
2022-12-12T06:08:00.739Z,6.13
2022-12-12T06:10:29.712Z,8.07
2022-12-12T06:12:58.090Z,5.40
2022-12-12T06:15:26.772Z,4.75
2022-12-12T06:17:55.345Z,4.63
2022-12-12T06:20:25.125Z,5.60
2022-12-12T06:22:54.210Z,4.53
2022-12-12T06:25:23.461Z,4.85
2022-12-12T06:27:52.205Z,7.90
2022-12-12T06:30:22.440Z,5.28
2022-12-12T06:33:16.105Z,6.35
2022-12-12T06:36:12.411Z,6.13
2022-12-12T06:38:41.614Z,5.82
2022-12-12T06:41:12.914Z,5.00
2022-12-12T06:43:42.588Z,6.43
2022-12-12T06:46:16.904Z,8.32
2022-12-12T06:48:46.005Z,6.45
2022-12-12T06:51:17.022Z,6.43
2022-12-12T06:53:45.869Z,6.65
2022-12-12T06:56:22.336Z,7.38
2022-12-12T06:58:52.295Z,7.13
2022-12-12T07:01:23.587Z,6.38
2022-12-12T07:03:53.927Z,7.43
2022-12-12T07:06:23.688Z,6.30
2022-12-12T07:08:53.439Z,6.80
2022-12-12T07:11:24.692Z,7.05
2022-12-12T07:13:56.928Z,5.30
2022-12-12T07:16:25.412Z,4.97
2022-12-12T07:18:54.250Z,6.47
2022-12-12T07:21:22.877Z,6.05
2022-12-12T07:23:51.664Z,5.63
2022-12-12T07:26:22.588Z,4.50
2022-12-12T07:28:52.182Z,4.78
2022-12-12T07:31:23.137Z,4.93
2022-12-12T07:33:54.357Z,6.00
2022-12-12T07:36:23.786Z,4.32
2022-12-12T07:38:52.686Z,4.78
2022-12-12T07:41:23.500Z,4.57
2022-12-12T07:43:52.678Z,4.40
2022-12-12T07:46:23.796Z,3.63
2022-12-12T07:48:54.073Z,3.65
2022-12-12T07:51:22.961Z,2.35
2022-12-12T07:53:51.761Z,2.75
2022-12-12T07:56:20.554Z,3.95
2022-12-12T07:58:49.871Z,4.53
2022-12-12T08:01:21.813Z,4.35
2022-12-12T08:03:51.460Z,4.18
2022-12-12T08:06:22.045Z,5.63
2022-12-12T08:08:52.685Z,4.63
2022-12-12T08:11:23.227Z,4.65
2022-12-12T08:13:53.241Z,5.50
2022-12-12T08:16:24.785Z,4.40
2022-12-12T08:18:55.815Z,4.00
2022-12-12T08:21:26.437Z,2.65
2022-12-12T08:23:57.753Z,3.45
2022-12-12T08:26:26.432Z,5.35
2022-12-12T08:28:56.687Z,4.78
2022-12-12T08:31:25.603Z,4.70
2022-12-12T08:33:54.841Z,3.72
2022-12-12T08:36:26.078Z,3.35
2022-12-12T08:38:54.792Z,2.72
2022-12-12T08:41:25.265Z,2.80
2022-12-12T08:43:54.220Z,3.35
2022-12-12T08:46:23.567Z,2.53
2022-12-12T08:48:52.476Z,2.50
2022-12-12T08:51:30.940Z,2.10
2022-12-12T08:53:59.534Z,1.73
2022-12-12T08:56:29.092Z,2.10
2022-12-12T08:58:57.767Z,4.20
2022-12-12T09:01:27.799Z,4.30
2022-12-12T09:03:57.746Z,3.75
2022-12-12T09:06:27.021Z,3.65
2022-12-12T09:08:57.730Z,3.15
2022-12-12T09:11:26.570Z,1.92
2022-12-12T09:13:55.668Z,2.75
2022-12-12T09:16:26.840Z,2.40
2022-12-12T09:18:56.487Z,2.33
2022-12-12T09:21:25.186Z,2.03
2022-12-12T09:23:53.957Z,2.08
2022-12-12T09:26:22.216Z,1.95
2022-12-12T09:28:51.122Z,1.85
2022-12-12T09:31:20.282Z,2.80
2022-12-12T09:33:51.625Z,2.78
2022-12-12T09:36:21.203Z,2.45
2022-12-12T09:38:50.441Z,3.90
2022-12-12T09:41:30.842Z,2.15
2022-12-12T09:44:08.773Z,2.33
2022-12-12T09:46:41.892Z,2.45
2022-12-12T09:49:31.317Z,3.78
2022-12-12T09:52:02.725Z,2.95
2022-12-12T09:54:31.885Z,3.43
2022-12-12T09:57:33.702Z,2.42
2022-12-12T10:00:09.830Z,2.03
2022-12-12T10:03:22.603Z,2.17
2022-12-12T10:06:35.833Z,3.70
2022-12-12T10:08:59.676Z,3.03
2022-12-12T10:11:51.233Z,3.30
2022-12-12T10:14:41.329Z,3.80
2022-12-12T10:17:21.708Z,3.65
2022-12-12T10:19:53.684Z,3.88
2022-12-12T10:22:40.708Z,2.88
2022-12-12T10:25:19.920Z,4.45
2022-12-12T10:27:54.595Z,2.90
2022-12-12T10:30:23.142Z,1.85
2022-12-12T10:33:11.953Z,2.30
2022-12-12T10:35:53.070Z,2.70
2022-12-12T10:38:40.372Z,3.00
2022-12-12T10:41:23.732Z,2.95
2022-12-12T10:44:04.620Z,2.60
2022-12-12T10:46:58.329Z,2.28
2022-12-12T10:49:27.390Z,3.28
2022-12-12T10:51:58.030Z,9.57
2022-12-12T10:54:28.852Z,4.15
2022-12-12T10:57:14.104Z,2.40
2022-12-12T10:59:53.054Z,3.53
2022-12-12T11:02:30.790Z,3.22
2022-12-12T11:05:05.882Z,3.92
2022-12-12T11:07:39.758Z,2.72
2022-12-12T11:10:33.910Z,2.20
2022-12-12T11:13:21.806Z,1.73
2022-12-12T11:15:56.932Z,3.22
2022-12-12T11:18:25.654Z,3.53
2022-12-12T11:21:03.422Z,3.47
2022-12-12T11:23:33.722Z,2.45
2022-12-12T11:26:22.653Z,3.42
2022-12-12T11:29:02.601Z,4.10
2022-12-12T11:31:34.503Z,4.20
2022-12-12T11:34:06.709Z,2.38
2022-12-12T11:36:40.705Z,3.17
2022-12-12T11:39:22.408Z,2.45
2022-12-12T11:42:30.647Z,2.00
2022-12-12T11:45:09.609Z,2.65
2022-12-12T11:47:46.631Z,2.95
2022-12-12T11:50:25.591Z,2.97
2022-12-12T11:52:59.026Z,4.78
2022-12-12T11:55:57.947Z,2.80
2022-12-12T11:58:34.273Z,3.20
2022-12-12T12:01:06.640Z,2.38
2022-12-12T12:03:56.843Z,3.00
2022-12-12T12:09:35.292Z,3.03
2022-12-12T12:12:07.942Z,2.25
2022-12-12T12:14:38.200Z,3.72
2022-12-12T12:17:22.424Z,2.72
2022-12-12T12:20:30.022Z,3.58
2022-12-12T12:23:15.332Z,4.45
2022-12-12T12:26:04.716Z,3.28
2022-12-12T12:28:52.227Z,4.97
2022-12-12T12:31:42.230Z,3.97
2022-12-12T12:34:35.861Z,4.25
2022-12-12T12:37:29.372Z,3.65
2022-12-12T12:40:10.346Z,3.47
2022-12-12T12:43:05.552Z,3.45
2022-12-12T12:46:27.217Z,4.72
2022-12-12T12:49:10.546Z,5.38
2022-12-12T12:52:10.634Z,5.75
2022-12-12T12:54:49.240Z,3.95
2022-12-12T12:57:28.618Z,3.17
2022-12-12T13:00:06.380Z,2.63
2022-12-12T13:02:56.660Z,2.67
2022-12-12T13:05:35.180Z,5.45
2022-12-12T13:08:22.422Z,3.80
2022-12-12T13:10:54.364Z,2.20
2022-12-12T13:13:36.072Z,2.60
2022-12-12T13:16:13.311Z,2.72
2022-12-12T13:18:46.194Z,2.80
2022-12-12T13:21:25.322Z,3.60
2022-12-12T13:24:10.832Z,2.55
2022-12-12T13:27:01.977Z,2.65
2022-12-12T13:29:54.057Z,3.60
2022-12-12T13:33:00.634Z,3.80
2022-12-12T13:35:38.643Z,2.78
2022-12-12T13:38:31.668Z,3.65
2022-12-12T13:41:06.728Z,3.20
2022-12-12T13:43:38.430Z,2.83
2022-12-12T13:46:21.979Z,3.85
2022-12-12T13:48:58.862Z,3.80
2022-12-12T13:51:32.347Z,3.80
2022-12-12T13:54:12.236Z,3.10
2022-12-12T13:56:53.528Z,3.60
2022-12-12T13:59:22.180Z,4.38
2022-12-12T14:02:02.104Z,3.38
2022-12-12T14:07:17.924Z,4.22
2022-12-12T14:09:49.880Z,3.25
2022-12-12T14:12:31.085Z,2.55
2022-12-12T14:15:08.764Z,3.60
2022-12-12T14:17:42.708Z,4.28
2022-12-12T14:20:27.250Z,5.68
2022-12-12T14:22:55.590Z,4.80
2022-12-12T14:25:34.433Z,4.60
2022-12-12T14:28:29.981Z,5.68
2022-12-12T14:31:17.412Z,5.82
2022-12-12T14:34:05.195Z,6.00
2022-12-12T14:36:33.717Z,7.10
2022-12-12T14:39:15.198Z,6.78
2022-12-12T14:41:47.671Z,7.30
2022-12-12T14:47:08.372Z,8.10
2022-12-12T14:49:36.962Z,8.38
2022-12-12T14:52:06.008Z,7.95
2022-12-12T14:54:36.312Z,9.45
2022-12-12T14:57:07.848Z,8.90
2022-12-12T14:59:41.271Z,8.60
2022-12-12T15:02:29.435Z,8.98
2022-12-12T15:05:05.246Z,7.68
2022-12-12T15:07:38.974Z,7.97
2022-12-12T15:10:29.442Z,8.20
2022-12-12T15:12:58.196Z,9.98
2022-12-12T15:15:35.725Z,18.60
2022-12-12T15:18:04.703Z,10.45
2022-12-12T15:20:33.231Z,9.70
2022-12-12T15:23:08.709Z,11.80
2022-12-12T15:25:55.004Z,9.57
2022-12-12T15:28:51.437Z,10.68
2022-12-12T15:31:20.888Z,12.18
2022-12-12T15:33:50.654Z,9.13
2022-12-12T15:36:28.498Z,7.07
2022-12-12T15:39:23.902Z,8.50
2022-12-12T15:41:52.420Z,7.70
2022-12-12T15:44:22.555Z,7.35
2022-12-12T15:46:53.253Z,6.30
2022-12-12T15:49:44.371Z,8.83
2022-12-12T15:52:26.410Z,8.20
2022-12-12T15:54:57.813Z,10.55
2022-12-12T15:57:30.882Z,8.50
2022-12-12T16:00:08.928Z,6.60
2022-12-12T16:02:41.229Z,12.90
2022-12-12T16:05:37.523Z,15.48
2022-12-12T16:08:32.467Z,8.43
2022-12-12T16:11:32.191Z,8.65
2022-12-12T16:14:02.347Z,8.60
2022-12-12T16:16:47.928Z,4.15
2022-12-12T16:19:39.220Z,6.18
2022-12-12T16:22:24.815Z,7.18
2022-12-12T16:24:57.742Z,4.30
2022-12-12T16:27:45.159Z,7.35
2022-12-12T16:30:17.094Z,6.82
2022-12-12T16:32:46.834Z,10.32
2022-12-12T16:35:18.329Z,7.38
2022-12-12T16:37:56.728Z,9.40
2022-12-12T16:40:25.542Z,9.32
2022-12-12T16:43:07.704Z,10.63
2022-12-12T16:45:38.316Z,10.95
2022-12-12T16:48:40.700Z,8.77
2022-12-12T16:51:40.483Z,8.90
2022-12-12T16:54:17.661Z,8.32
2022-12-12T16:56:52.850Z,6.07
2022-12-12T16:59:24.888Z,9.65
2022-12-12T17:01:53.262Z,9.25
2022-12-12T17:04:23.866Z,9.18
2022-12-12T17:06:52.804Z,9.18
2022-12-12T17:09:26.823Z,10.95
2022-12-12T17:11:59.675Z,8.05
2022-12-12T17:14:28.259Z,10.30
2022-12-12T17:16:58.605Z,7.60
2022-12-12T17:19:27.403Z,11.45
2022-12-12T17:21:58.855Z,9.02
2022-12-12T17:24:28.016Z,9.93
2022-12-12T17:26:57.157Z,8.82
2022-12-12T17:29:26.232Z,10.73
2022-12-12T17:32:03.591Z,9.18
2022-12-12T17:34:41.375Z,10.70
2022-12-12T17:37:09.791Z,14.30
2022-12-12T17:39:38.575Z,19.02
2022-12-12T17:42:06.806Z,14.75
2022-12-12T17:44:36.856Z,9.25
2022-12-12T17:47:05.145Z,10.55
2022-12-12T17:49:33.969Z,6.75
2022-12-12T17:52:03.432Z,10.93
2022-12-12T17:54:32.608Z,9.73
2022-12-12T17:57:02.857Z,10.32
2022-12-12T17:59:31.567Z,10.95
2022-12-12T18:02:01.300Z,9.27
2022-12-12T18:04:36.035Z,8.32
2022-12-12T18:07:19.902Z,9.43
2022-12-12T18:09:48.552Z,8.02
2022-12-12T18:12:17.432Z,7.40
2022-12-12T18:14:46.344Z,8.15
2022-12-12T18:17:49.374Z,11.50
2022-12-12T18:20:20.166Z,6.13
2022-12-12T18:22:50.226Z,4.07
2022-12-12T18:26:33.977Z,6.03
2022-12-12T18:29:23.662Z,10.18
2022-12-12T18:31:52.269Z,10.43
2022-12-12T18:34:21.525Z,11.32
2022-12-12T18:36:54.163Z,6.88
2022-12-12T18:42:31.856Z,7.63
2022-12-12T18:45:00.605Z,8.15
2022-12-12T18:47:31.033Z,6.50
2022-12-12T18:50:26.039Z,7.57
2022-12-12T18:52:58.516Z,8.70
2022-12-12T19:02:43.470Z,5.50
2022-12-12T19:08:10.596Z,7.22
2022-12-12T19:10:42.323Z,6.90
2022-12-12T19:16:23.083Z,6.00
2022-12-12T19:18:51.946Z,2.72
2022-12-12T19:21:24.065Z,3.70
2022-12-12T19:23:54.884Z,4.78
2022-12-12T19:26:28.154Z,7.00
2022-12-12T19:29:10.913Z,7.28
2022-12-12T19:31:52.649Z,4.78
2022-12-12T19:34:45.161Z,3.95
2022-12-12T19:37:14.596Z,7.40
2022-12-12T19:39:54.080Z,7.65
2022-12-12T19:42:25.725Z,5.47
2022-12-12T19:45:09.166Z,4.38
2022-12-12T19:51:16.585Z,5.38
2022-12-12T19:53:49.674Z,4.93
2022-12-12T19:56:21.190Z,6.05
2022-12-12T20:01:45.228Z,4.65
2022-12-12T20:04:18.382Z,5.32
2022-12-12T20:06:50.694Z,5.00
2022-12-12T20:09:48.696Z,4.43
2022-12-12T20:12:29.225Z,5.53
2022-12-12T20:14:58.888Z,6.22
2022-12-12T20:17:37.139Z,5.70
2022-12-12T20:20:08.616Z,7.22
2022-12-12T20:22:43.615Z,9.50
2022-12-12T20:25:13.379Z,14.80
2022-12-12T20:27:42.875Z,6.57
2022-12-12T20:30:13.833Z,17.70
2022-12-12T20:32:44.361Z,19.30
2022-12-12T20:35:16.138Z,9.13
2022-12-12T20:37:50.002Z,9.48
2022-12-12T20:41:23.523Z,7.22
2022-12-12T20:44:36.135Z,7.93
2022-12-12T20:50:17.500Z,8.07
2022-12-12T20:52:47.876Z,8.23
2022-12-12T20:55:20.040Z,6.55
2022-12-12T20:57:50.601Z,9.00
2022-12-12T21:00:21.804Z,7.57
2022-12-12T21:02:53.545Z,7.47
2022-12-12T21:05:23.756Z,7.03
2022-12-12T21:07:57.784Z,5.97
2022-12-12T21:10:27.936Z,6.97
2022-12-12T21:13:01.741Z,6.95
2022-12-12T21:15:30.599Z,5.93
2022-12-12T21:18:09.906Z,7.70
2022-12-12T21:20:39.011Z,6.22
2022-12-12T21:23:08.041Z,7.47
2022-12-12T21:25:37.133Z,7.57
2022-12-12T21:28:06.524Z,8.75
2022-12-12T21:30:34.925Z,9.23
2022-12-12T21:33:26.599Z,7.25
2022-12-12T21:35:55.376Z,5.67
2022-12-12T21:38:24.131Z,6.80
2022-12-12T21:40:53.646Z,6.88
2022-12-12T21:43:24.312Z,8.02
2022-12-12T21:45:53.325Z,7.93
2022-12-12T21:48:24.060Z,7.70
2022-12-12T21:50:52.616Z,7.72
2022-12-12T21:53:34.767Z,8.27
2022-12-12T21:56:16.095Z,8.05
2022-12-12T21:58:46.895Z,4.63
2022-12-12T22:01:18.149Z,6.63
2022-12-12T22:03:48.639Z,7.70
2022-12-12T22:06:25.913Z,6.45
2022-12-12T22:08:56.062Z,8.60
2022-12-12T22:11:40.108Z,6.63
2022-12-12T22:14:11.372Z,8.88
2022-12-12T22:16:39.911Z,8.48
2022-12-12T22:19:11.844Z,7.28
2022-12-12T22:21:40.634Z,6.35
2022-12-12T22:24:10.994Z,5.65
2022-12-12T22:26:45.706Z,6.47
2022-12-12T22:29:20.519Z,5.88
2022-12-12T22:31:52.759Z,4.93
2022-12-12T22:34:23.834Z,5.55
2022-12-12T22:36:53.498Z,6.35
2022-12-12T22:39:26.358Z,6.72
2022-12-12T22:41:57.392Z,7.43
2022-12-12T22:44:26.667Z,7.07
2022-12-12T22:46:56.711Z,6.50
2022-12-12T22:49:26.954Z,6.65
2022-12-12T22:51:57.372Z,7.03
2022-12-12T22:54:27.117Z,4.90
2022-12-12T22:56:55.761Z,6.65
2022-12-12T22:59:26.079Z,3.80
2022-12-12T23:01:55.471Z,5.97
2022-12-12T23:04:24.198Z,6.13
2022-12-12T23:06:52.463Z,5.45
2022-12-12T23:09:22.620Z,6.45
2022-12-12T23:11:51.128Z,5.80
2022-12-12T23:14:24.120Z,5.32
2022-12-12T23:16:54.629Z,4.70
2022-12-12T23:19:26.014Z,5.47
2022-12-12T23:21:54.487Z,5.63
2022-12-12T23:24:23.559Z,4.32
2022-12-12T23:26:52.429Z,6.82
2022-12-12T23:29:21.636Z,5.57
2022-12-12T23:31:50.273Z,5.63
2022-12-12T23:34:24.308Z,6.10
2022-12-12T23:36:54.258Z,3.00
2022-12-12T23:39:26.475Z,6.60
2022-12-12T23:41:54.738Z,3.95
2022-12-12T23:44:24.135Z,4.93
2022-12-12T23:46:52.887Z,5.45
2022-12-12T23:49:24.291Z,4.28
2022-12-12T23:51:55.866Z,4.30
2022-12-12T23:56:56.391Z,3.17
2022-12-12T23:59:26.647Z,5.38
